Aeroporto :
LOGIN :

Iscrizione | Disclaimer

   EN    FR    IT 

 










Sommario :    VFR   VFR Marginale   IFR   IFR Intensivo   IFR Molto Intensivo
Visibilità : 
Base nubi : 
>= 8 km
>= 3000ft
5 / 8 km
1000 / 3000 ft
1500m / 5 km
500 / 1000 ft
800 / 1500m
200 / 500 ft
< 800m
< 200 ft
Simboli :   Temporali  Nebbia  Neve Forte  Precipitazioni Forti  Vento > 20 kt
SIGMETs :   Varie  Temporali  Ghiacco  Turbolenza  Onda orograficha  Ceneri Vulcaniche






- Altitudine del aeroporto : 407 ft


EGDM - MoD Boscombe Down Amesbury

ULTIMO METAR :
  • 221650Z 29005KT 9999 FEW020 BKN040 12/09 Q1009 RMK BLU

METARs OBSOLETI :
  • 221550Z 28007KT 9999 FEW020 SCT030 14/10 Q1009 NOSIG RMK BLU BLU
  • 221520Z 25010KT 9999 FEW020 SCT028 14/10 Q1009 TEMPO SCT020 RMK BLU TEMPO WHT
  • 221450Z 25009KT 9999 SCT020 BKN030 14/09 Q1009 TEMPO FEW020 SCT030 RMK WHT TEMPO BLU

TAF TAF EGDM
Valido dal 22 a 15 ore il 22 a 18 ore UTC


221345Z 2215/2218 23010KT 9999 BKN025
TEMPO 2215/2218 SCT018



MetMap, La meteo Aeronautica in un colpo d'occhio ! - Copyright ORBIFLY Dicembre 2007 - Disclaimer

ORBIFLY MET'MAP TEAM :

Programmazione e sviluppo : Alexandra Zaïnal
Concezione : Baudouin d'Aumeries
Aiuto per la programmazione : Marc-Olivier Méhu
Supporto tecnico e logistico : Manuel Goepfert
Aiuto per la traduzione : Arnaldo La Scala

Contatto : metmap@orbifly.com




FONTI E CREDITI :

   NOAA